Portada
METAR-TAF:

METAR-TAF

Aeropuertos :

Estocolmo-Arlanda, Suecia

Aeropuerto de Estocolmo-Arlanda

latitud: 59-39N, longitud: 017-57E, altitud: 38 m

Observación

El informe se hizo hace 38 minutos, a las 17:50 UTC
Viento 9 kt del este
Temperatura 15°C
Humedad 59%
Presión 1006 hPa
Visibilidad 10 km o más
sin nubes por debajo de 1500 m y sin presencia de cumulonimbus.

METAR: ESSA 221750Z 10009KT CAVOK 15/07 Q1006 NOSIG

Hora: 20:28 (18:28 UTC)

Pronóstico

El informe se hizo hace 58 minutos, a las 17:30 UTC
Pronóstico válido del 22 a las 18 UTC al 23 a las 18 UTC
Viento 8 kt del este-sureste
Visibilidad 10 km o más
sin nubes por debajo de 1500 m y sin presencia de cumulonimbus.
Evolucionando progresivamente
del 23 a las 08 UTC al 23 a las 10 UTC
Viento 10 kt del sur

TAF: ESSA 221730Z 2218/2318 11008KT CAVOK BECMG 2308/2310 17010KT

Observaciones y pronósticos meteorológicos de más de 4000 aeropuertos (mensajes METAR y TAF).

Los puntos amarillos y rojos representan las estaciones disponibles.

Ponga el ratón en el punto deseado para ver el nombre de la estación.

Haga clic para ver las observaciones y los pronósticos meteorológicos.

Para cambiar el mapa : haga clic en los botones verdes con una cruz de color negro para hacer un zoom, en el botón verde con un guión para alejar o en las flechas verdes para mapas adyacentes.


METAR-TAF: